createdAt,value
2019-03-10T00:03:09.317Z,93.30
2019-03-10T00:08:13.291Z,93.80
2019-03-10T00:13:17.062Z,92.60
2019-03-10T00:18:20.730Z,93.40
2019-03-10T00:23:24.386Z,93.30
2019-03-10T00:28:28.065Z,93.60
2019-03-10T00:33:32.286Z,93.00
2019-03-10T00:38:47.481Z,93.30
2019-03-10T00:44:42.186Z,93.30
2019-03-10T00:50:16.967Z,93.60
2019-03-10T00:55:20.651Z,93.70
2019-03-10T01:00:24.490Z,93.50
2019-03-10T01:05:28.229Z,93.70
2019-03-10T01:10:32.090Z,93.80
2019-03-10T01:15:35.814Z,93.30
2019-03-10T01:20:40.798Z,93.90
2019-03-10T01:25:44.485Z,94.40
2019-03-10T01:30:55.321Z,94.10
2019-03-10T01:35:58.972Z,94.50
2019-03-10T01:41:02.650Z,94.50
2019-03-10T01:46:06.373Z,94.30
2019-03-10T01:51:10.057Z,94.60
2019-03-10T01:56:13.721Z,94.60
2019-03-10T02:01:17.675Z,94.50
2019-03-10T02:06:21.361Z,94.40
2019-03-10T02:11:25.021Z,94.60
2019-03-10T02:16:29.079Z,94.30
2019-03-10T02:21:32.725Z,95.00
2019-03-10T02:26:36.411Z,94.60
2019-03-10T02:31:40.093Z,94.20
2019-03-10T02:36:44.418Z,94.90
2019-03-10T02:41:48.177Z,94.30
2019-03-10T02:46:51.864Z,94.50
2019-03-10T02:51:55.524Z,94.90
2019-03-10T02:56:59.159Z,95.10
2019-03-10T03:02:03.186Z,94.60
2019-03-10T03:07:06.834Z,94.50
2019-03-10T03:12:10.819Z,94.70
2019-03-10T03:17:14.554Z,94.90
2019-03-10T03:22:18.454Z,94.90
2019-03-10T03:27:22.449Z,95.20
2019-03-10T03:32:26.353Z,94.70
2019-03-10T03:37:30.024Z,94.70
2019-03-10T03:42:33.770Z,94.70
2019-03-10T03:47:37.442Z,94.50
2019-03-10T03:52:41.127Z,94.60
2019-03-10T03:57:45.080Z,94.40
2019-03-10T04:02:49.107Z,94.30
2019-03-10T04:07:53.126Z,94.20
2019-03-10T04:12:56.879Z,94.30
2019-03-10T04:18:00.870Z,94.30
2019-03-10T04:23:04.523Z,94.70
2019-03-10T04:28:08.211Z,95.00
2019-03-10T04:33:12.227Z,94.60
2019-03-10T04:38:15.937Z,94.70
2019-03-10T04:43:19.963Z,94.70
2019-03-10T04:48:23.661Z,95.20
2019-03-10T04:53:27.656Z,94.60
2019-03-10T04:58:32.230Z,94.50
2019-03-10T05:03:35.891Z,94.50
2019-03-10T05:08:39.585Z,94.20
2019-03-10T05:13:43.275Z,94.10
2019-03-10T05:18:46.953Z,93.90
2019-03-10T05:23:50.893Z,94.00
2019-03-10T05:28:54.578Z,93.70
2019-03-10T05:33:58.353Z,93.60
2019-03-10T05:39:02.107Z,93.60
2019-03-10T05:44:05.881Z,93.50
2019-03-10T05:49:09.608Z,93.70
2019-03-10T05:54:13.339Z,93.90
2019-03-10T05:59:17.005Z,93.50
2019-03-10T06:04:20.709Z,93.70
2019-03-10T06:09:24.378Z,93.40
2019-03-10T06:14:28.066Z,93.40
2019-03-10T06:19:32.047Z,93.20
2019-03-10T06:24:36.398Z,92.90
2019-03-10T06:29:40.074Z,92.80
2019-03-10T06:34:43.758Z,92.60
2019-03-10T06:39:47.469Z,92.90
2019-03-10T06:44:51.965Z,92.70
2019-03-10T06:49:55.921Z,92.90
2019-03-10T06:54:59.845Z,92.70
2019-03-10T07:00:03.823Z,92.40
2019-03-10T07:05:09.221Z,92.60
2019-03-10T07:10:13.581Z,92.80
2019-03-10T07:15:17.314Z,92.70
2019-03-10T07:20:21.035Z,93.00
2019-03-10T07:25:25.041Z,93.10
2019-03-10T07:30:40.792Z,93.20
2019-03-10T07:36:09.634Z,93.60
2019-03-10T07:41:25.076Z,93.80
2019-03-10T07:46:41.160Z,94.40
2019-03-10T07:52:19.581Z,94.20
2019-03-10T07:57:22.395Z,94.40
2019-03-10T08:02:45.973Z,94.50
2019-03-10T08:08:07.808Z,94.50
2019-03-10T08:13:30.752Z,94.80
2019-03-10T08:18:48.899Z,95.10
2019-03-10T08:24:10.811Z,95.40
2019-03-10T08:29:39.763Z,97.00
2019-03-10T08:34:57.892Z,97.70
2019-03-10T08:40:16.449Z,98.80
2019-03-10T08:45:42.078Z,99.90
2019-03-10T08:51:07.065Z,99.90
2019-03-10T08:56:17.705Z,99.90
2019-03-10T09:01:39.263Z,99.90
2019-03-10T09:07:02.210Z,99.90
2019-03-10T09:12:14.641Z,99.90
2019-03-10T09:17:28.725Z,99.90
2019-03-10T09:22:58.862Z,99.90
2019-03-10T09:28:15.219Z,99.90
2019-03-10T09:33:44.129Z,99.90
2019-03-10T09:38:53.778Z,99.90
2019-03-10T09:44:19.194Z,99.90
2019-03-10T09:49:37.254Z,99.90
2019-03-10T09:55:01.037Z,99.90
2019-03-10T10:00:29.872Z,99.90
2019-03-10T10:05:45.133Z,99.90
2019-03-10T10:11:08.942Z,99.90
2019-03-10T10:16:33.754Z,99.90
2019-03-10T10:22:07.630Z,99.90
2019-03-10T10:27:49.473Z,99.90
2019-03-10T10:33:20.444Z,99.90
2019-03-10T10:38:41.405Z,99.90
2019-03-10T10:44:04.537Z,99.90
2019-03-10T10:49:29.705Z,99.90
2019-03-10T10:54:45.735Z,99.90
2019-03-10T10:59:58.030Z,99.90
2019-03-10T11:05:23.965Z,99.90
2019-03-10T11:10:35.494Z,99.90
2019-03-10T11:15:54.611Z,99.90
2019-03-10T11:21:36.105Z,99.90
2019-03-10T11:26:57.009Z,99.90
2019-03-10T11:32:19.473Z,99.90
2019-03-10T11:37:55.016Z,99.90
2019-03-10T11:43:26.451Z,99.90
2019-03-10T11:48:47.643Z,99.90
2019-03-10T11:54:07.539Z,99.90
2019-03-10T11:59:30.791Z,99.90
2019-03-10T12:04:55.714Z,99.90
2019-03-10T12:10:00.155Z,99.90
2019-03-10T12:15:08.914Z,99.90
2019-03-10T12:20:13.910Z,99.90
2019-03-10T12:25:17.954Z,99.90
2019-03-10T12:30:21.862Z,99.90
2019-03-10T12:35:33.895Z,99.90
2019-03-10T12:40:30.989Z,99.90
2019-03-10T12:45:35.018Z,99.90
2019-03-10T12:50:38.990Z,99.90
2019-03-10T12:55:42.770Z,99.90
2019-03-10T13:00:46.494Z,99.90
2019-03-10T13:05:50.360Z,99.90
2019-03-10T13:10:54.260Z,99.90
2019-03-10T13:15:57.974Z,99.90
2019-03-10T13:21:01.894Z,99.90
2019-03-10T13:26:05.593Z,99.90
2019-03-10T13:31:09.533Z,99.90
2019-03-10T13:36:13.458Z,99.90
2019-03-10T13:41:17.174Z,99.90
2019-03-10T13:46:20.977Z,99.60
2019-03-10T13:51:25.047Z,97.20
2019-03-10T13:56:28.895Z,93.10
2019-03-10T14:01:32.985Z,81.50
2019-03-10T14:06:36.681Z,68.80
2019-03-10T14:11:40.639Z,60.00
2019-03-10T14:16:44.343Z,63.50
2019-03-10T14:21:48.189Z,79.70
2019-03-10T14:26:51.994Z,91.20
2019-03-10T14:31:55.755Z,93.00
2019-03-10T14:36:59.440Z,96.50
2019-03-10T14:42:03.129Z,96.50
2019-03-10T14:47:07.075Z,97.50
2019-03-10T14:52:10.823Z,99.30
2019-03-10T14:57:14.518Z,99.90
2019-03-10T15:02:18.244Z,99.90
2019-03-10T15:07:21.991Z,99.90
2019-03-10T15:12:25.784Z,99.90
2019-03-10T15:17:29.448Z,99.90
2019-03-10T15:22:33.398Z,99.90
2019-03-10T15:27:39.204Z,99.90
2019-03-10T15:32:42.903Z,99.90
2019-03-10T15:37:46.925Z,99.90
2019-03-10T15:42:54.016Z,99.90
2019-03-10T15:47:58.139Z,99.90
2019-03-10T15:53:02.438Z,99.90
2019-03-10T15:58:06.232Z,99.90
2019-03-10T16:03:11.330Z,99.90
2019-03-10T16:08:15.037Z,99.90
2019-03-10T16:13:18.813Z,99.90
2019-03-10T16:18:22.838Z,99.90
2019-03-10T16:23:26.530Z,99.90
2019-03-10T16:28:30.634Z,99.90
2019-03-10T16:33:34.421Z,99.90
2019-03-10T16:38:38.122Z,99.90
2019-03-10T16:43:41.822Z,99.90
2019-03-10T16:48:45.674Z,99.90
2019-03-10T16:53:49.611Z,99.90
2019-03-10T16:58:53.326Z,99.90
2019-03-10T17:03:57.193Z,99.90
2019-03-10T17:09:00.912Z,99.90
2019-03-10T17:14:05.912Z,99.90
2019-03-10T17:19:09.799Z,99.90
2019-03-10T17:24:13.828Z,99.90
2019-03-10T17:29:17.670Z,99.90
2019-03-10T17:34:21.446Z,99.90
2019-03-10T17:39:25.405Z,99.90
2019-03-10T17:44:40.390Z,99.90
2019-03-10T17:49:35.179Z,99.90
2019-03-10T17:54:39.154Z,99.90
2019-03-10T17:59:42.892Z,99.90
2019-03-10T18:04:47.398Z,99.90
2019-03-10T18:09:51.182Z,99.40
2019-03-10T18:14:55.147Z,97.50
2019-03-10T18:19:59.591Z,96.60
2019-03-10T18:25:03.766Z,96.40
2019-03-10T18:30:09.594Z,96.20
2019-03-10T18:35:13.284Z,95.10
2019-03-10T18:40:18.244Z,92.40
2019-03-10T18:45:22.105Z,89.70
2019-03-10T18:50:25.972Z,86.70
2019-03-10T18:55:30.093Z,82.80
2019-03-10T19:00:33.909Z,79.90
2019-03-10T19:05:37.621Z,80.20
2019-03-10T19:10:41.441Z,79.40
2019-03-10T19:15:46.216Z,76.60
2019-03-10T19:20:49.930Z,78.00
2019-03-10T19:25:53.660Z,79.20
2019-03-10T19:30:57.378Z,79.50
2019-03-10T19:36:01.118Z,79.70
2019-03-10T19:41:04.917Z,79.30
2019-03-10T19:46:09.187Z,81.40
2019-03-10T19:51:15.276Z,78.30
2019-03-10T19:56:19.102Z,75.90
2019-03-10T20:01:22.821Z,77.00
2019-03-10T20:06:26.648Z,79.70
2019-03-10T20:11:30.341Z,79.90
2019-03-10T20:16:34.101Z,78.50
2019-03-10T20:21:37.806Z,78.10
2019-03-10T20:26:41.648Z,77.90
2019-03-10T20:31:45.329Z,78.80
2019-03-10T20:36:49.012Z,75.70
2019-03-10T20:42:04.507Z,74.40
2019-03-10T20:46:58.718Z,75.10
2019-03-10T20:52:02.420Z,74.00
2019-03-10T20:57:06.399Z,76.80
2019-03-10T21:02:10.384Z,81.40
2019-03-10T21:07:14.134Z,90.50
2019-03-10T21:12:17.988Z,92.60
2019-03-10T21:17:21.893Z,95.70
2019-03-10T21:22:25.628Z,96.50
2019-03-10T21:27:29.390Z,97.20
2019-03-10T21:32:33.177Z,97.50
2019-03-10T21:37:37.062Z,98.40
2019-03-10T21:42:40.975Z,98.90
2019-03-10T21:47:45.060Z,99.50
2019-03-10T21:52:48.770Z,99.90
2019-03-10T21:57:52.995Z,99.90
2019-03-10T22:02:57.174Z,99.90
2019-03-10T22:08:00.883Z,99.90
2019-03-10T22:13:04.957Z,99.90
2019-03-10T22:18:08.745Z,99.90
2019-03-10T22:23:12.410Z,99.90
2019-03-10T22:28:16.327Z,99.90
2019-03-10T22:33:20.446Z,99.90
2019-03-10T22:38:24.163Z,99.90
2019-03-10T22:43:28.106Z,99.90
2019-03-10T22:48:32.026Z,99.90
2019-03-10T22:53:36.034Z,99.90
2019-03-10T22:58:39.695Z,99.90
2019-03-10T23:03:43.762Z,99.90
2019-03-10T23:08:47.422Z,99.90
2019-03-10T23:13:51.112Z,99.90
2019-03-10T23:18:54.833Z,99.90
2019-03-10T23:23:57.920Z,99.90
2019-03-10T23:29:01.557Z,99.90
2019-03-10T23:34:05.222Z,99.90
2019-03-10T23:39:08.902Z,99.90
2019-03-10T23:44:12.831Z,99.90
2019-03-10T23:49:16.504Z,99.90
2019-03-10T23:54:20.485Z,99.90
2019-03-10T23:59:24.213Z,99.90
